Stations météo

réclame
Mon MeteoGroup
Schmücke, Allemagne (10552): Température de l'air & dewpoint: 06.12.2017 05:00:00 - 12.12.2017 05:00:00 (CET)Schmücke, Allemagne (10552): Température de l'air 5cm & Température de l'air -5cm: 06.12.2017 05:00:00 - 12.12.2017 05:00:00 (CET)Schmücke, Allemagne (10552): Température de l'air -20cm & Température de l'air -100cm: 06.12.2017 05:00:00 - 12.12.2017 05:00:00 (CET)Schmücke, Allemagne (10552): Vitesse du vent & gusts: 06.12.2017 05:00:00 - 12.12.2017 05:00:00 (CET)Schmücke, Allemagne (10552): Direction du vent: 06.12.2017 05:00:00 - 12.12.2017 05:00:00 (CET)Schmücke, Allemagne (10552): visibility: 06.12.2017 05:00:00 - 12.12.2017 05:00:00 (CET)Schmücke, Allemagne (10552): Ensoleillement: 06.12.2017 05:00:00 - 12.12.2017 05:00:00 (CET)Schmücke, Allemagne (10552): Quantités de précipitations: 06.12.2017 05:00:00 - 12.12.2017 05:00:00 (CET)
Date & Time tt [°C] td [°C] tt 5cm [°C] tt -5cm [°C] tt -20cm [°C] tt -100cm [°C] ff [km/h] ff [knt] fx [km/h] fx [knt] dd vv [km] sd [min] rr [mm]
12.12.2017 05:00:00 -0,2 -0,6 0,0 0,2 0,8 3,8 48 26 79 42 SSW 2,2 0 0,0
12.12.2017 04:00:00 0,1 -0,2 0,0 0,2 0,8 3,8 49 27 86 47 SW 0,2 0 0,0
12.12.2017 03:00:00 0,5 0,2 0,0 0,2 0,8 3,8 47 26 79 43 SSW 0,2 0 0,3
12.12.2017 02:00:00 1,0 0,8 0,0 0,2 0,9 3,8 39 21 73 39 SSW 0,1 0 0,1
12.12.2017 01:00:00 1,0 0,8 0,0 0,2 0,9 3,8 35 19 63 34 SSW 0,1 0 0,0
12.12.2017 00:00:00 1,1 0,8 -0,1 0,2 0,9 3,8 28 15 61 33 SSW 0,1 0 0,0
11.12.2017 23:00:00 1,3 1,1 -0,1 0,2 0,9 3,8 28 15 59 32 SSW 0,1 0 0,0
11.12.2017 22:00:00 1,4 1,1 -0,1 0,2 0,9 3,8 26 14 53 29 SSW 2,0 0 0,0
11.12.2017 21:00:00 1,4 1,2 -0,1 0,2 0,9 3,8 28 15 50 27 SSW 0,1 0 0,0
11.12.2017 20:00:00 1,5 1,2 -0,1 0,2 0,9 3,8 26 14 52 28 SSW 1,1 0 0,0
11.12.2017 19:00:00 1,4 1,1 -0,1 0,2 0,9 3,8 27 15 42 23 SSW 0,9 0 0,3
11.12.2017 18:00:00 1,5 1,2 -0,1 0,2 0,9 3,8 23 12 42 23 SW 0,1 0 0,5
11.12.2017 17:00:00 1,6 1,4 -0,1 0,2 0,9 3,8 27 14 65 35 SW 0,1 0 0,9
11.12.2017 16:00:00 2,2 1,9 -0,1 0,2 0,9 3,8 30 16 55 30 S 3,1 0 1,1
11.12.2017 15:00:00 2,2 1,8 -0,2 0,3 0,9 3,8 29 15 54 29 S 6 0 1,7
11.12.2017 14:00:00 1,8 1,5 -0,2 0,3 0,9 3,8 32 17 54 29 S 1,3 0 1,6
11.12.2017 13:00:00 1,0 0,7 -0,2 0,3 0,9 3,8 29 15 56 30 S 0,3 0 0,4
11.12.2017 12:00:00 0,5 0,2 -0,2 0,3 0,9 3,8 25 14 49 27 S 0,6 0 1,6
11.12.2017 11:00:00 0,1 -0,2 -0,2 0,3 0,9 3,8 21 11 39 21 S 0,5 0 1,1
11.12.2017 10:00:00 0,0 -0,3 -0,3 0,3 0,9 3,9 21 11 37 20 S 0,5 0 0,5
11.12.2017 09:00:00 0,0 -0,3 -0,3 0,3 0,9 3,9 14 8 35 19 SSW 0,1 0 0,0
11.12.2017 08:00:00 0,0 -0,3 -0,3 0,3 0,9 3,9 17 9 41 22 SSW 0,1 0 0,0
11.12.2017 07:00:00 0,0 -0,3 -0,3 0,3 0,9 3,9 21 11 40 22 SSW 0,1 0 0,0
11.12.2017 06:00:00 0,0 -0,3 -0,3 0,3 0,9 3,9 28 15 50 27 SW 0,1 0 0,0
11.12.2017 05:00:00 0,0 -0,3 -0,3 0,3 0,9 3,9 32 17 60 33 SW 0,1 0 0,0
11.12.2017 04:00:00 0,0 -0,4 -0,3 0,3 0,9 3,9 40 22 59 32 SW 0,1 0 0,0
11.12.2017 03:00:00 0,0 -0,2 -0,3 0,3 0,9 3,9 29 16 72 39 SW 0,1 0 0,0
11.12.2017 02:00:00 0,0 -0,3 -0,3 0,3 0,9 3,9 43 23 85 46 SW 0,1 0 0,4
11.12.2017 01:00:00 0,0 -0,2 -0,3 0,3 0,9 3,9 67 36 103 56 SW 0,1 0 0,3
11.12.2017 00:00:00 0,0 -0,3 -0,4 0,3 0,9 3,9 54 29 94 51 SSW 0,1 0 0,5
10.12.2017 23:00:00 0,0 -0,3 -0,3 0,3 0,9 3,9 48 26 86 47 SSW 0,1 0 0,1
10.12.2017 22:00:00 -0,3 -0,7 -0,4 0,3 0,9 3,9 48 26 82 45 SSW - 0 0,4
10.12.2017 21:00:00 -1,4 -1,8 -0,3 0,3 0,9 3,9 50 27 85 46 SW 0,1 0 0,1
10.12.2017 20:00:00 -3,3 -3,8 -0,3 0,3 0,9 3,9 31 17 64 35 SSW - 0 0,0
10.12.2017 19:00:00 -4,9 -5,6 -0,3 0,3 0,9 3,9 36 19 63 34 SSW - 0 0,2
10.12.2017 18:00:00 -6,5 -7,5 -0,3 0,3 0,9 3,9 29 16 67 36 SSW 0,5 0 0,2
10.12.2017 17:00:00 -7,1 -8,3 -0,3 0,3 0,9 3,9 31 17 74 40 SSW 0,8 0 0,8
10.12.2017 16:00:00 -7,2 -8,4 -0,3 0,3 0,9 3,9 36 19 79 43 S 0,3 0 1,6
10.12.2017 15:00:00 -7,4 -8,7 -0,3 0,3 0,9 3,9 37 20 69 37 S 0,6 0 1,4
10.12.2017 14:00:00 -7,1 -8,3 -0,3 0,3 0,9 3,9 36 19 68 37 S 0,9 0 1,0
10.12.2017 13:00:00 -7,0 -8,2 -0,3 0,3 0,9 3,9 26 14 59 32 S 13 0 0,0
10.12.2017 12:00:00 -7,2 -8,3 -0,3 0,3 0,9 3,9 29 15 52 28 S 8 0 0,0
10.12.2017 11:00:00 -7,3 -8,4 -0,3 0,3 0,9 3,9 24 13 54 29 S 1,8 0 0,0
10.12.2017 10:00:00 -7,3 -8,4 -0,3 0,3 0,9 3,9 26 14 47 25 SSW 1,9 0 0,0
10.12.2017 09:00:00 -7,3 -8,4 -0,3 0,3 0,9 3,9 21 11 49 27 SSW 0,5 0 0,0
10.12.2017 08:00:00 -7,2 -8,3 -0,3 0,3 0,9 3,9 25 13 54 29 SSW 2,8 0 0,0
10.12.2017 07:00:00 -6,9 -7,9 -0,3 0,3 0,9 3,9 29 16 51 28 SSW 0,2 0 0,0
10.12.2017 06:00:00 -6,7 -7,7 -0,3 0,3 0,9 3,9 35 19 53 28 SW 0,2 0 0,0
10.12.2017 05:00:00 -6,6 -7,7 -0,3 0,3 0,9 3,9 35 19 58 31 SSW 0,2 0 0,0
10.12.2017 04:00:00 -6,4 -7,4 -0,3 0,3 0,9 3,9 40 22 62 33 SSW 0,2 0 0,1
10.12.2017 03:00:00 -6,3 -7,4 -0,3 0,3 0,9 3,9 41 22 67 36 SW 0,4 0 0,2
10.12.2017 02:00:00 -6,5 -7,5 -0,3 0,3 0,9 3,9 30 16 48 26 SW 0,1 0 0,0
10.12.2017 01:00:00 -6,5 -7,5 -0,3 0,3 0,9 3,9 25 14 41 22 SW 0,2 0 0,0
10.12.2017 00:00:00 -6,3 -7,2 -0,3 0,3 0,9 3,9 22 12 47 25 SW 0,8 0 0,0
09.12.2017 23:00:00 -6,0 -6,9 -0,3 0,3 0,9 3,9 24 13 46 25 SW 0,2 0 0,0
09.12.2017 22:00:00 -5,6 -6,4 -0,4 0,3 0,9 3,9 21 11 39 21 SW 0,2 0 0,0
09.12.2017 21:00:00 -5,4 -6,2 -0,4 0,3 0,9 3,9 24 13 51 27 SW 0,1 0 0,0
09.12.2017 20:00:00 -5,3 -6,1 -0,4 0,3 0,9 3,9 28 15 43 23 WSW 0,1 0 0,2
09.12.2017 19:00:00 -5,5 -6,4 -0,4 0,3 0,9 3,9 26 14 40 21 SW 0,2 0 1,6
09.12.2017 18:00:00 -5,5 -6,3 -0,4 0,3 0,9 3,9 24 13 47 26 SW 0,2 0 0,8
09.12.2017 17:00:00 -5,3 -6,1 -0,4 0,3 0,9 3,9 27 15 42 23 SW 0,2 0 0,5
09.12.2017 16:00:00 -5,5 -6,3 -0,4 0,3 0,9 4,0 21 12 37 20 WSW 0,1 0 0,0
09.12.2017 15:00:00 -5,6 -6,4 -0,4 0,3 0,9 4,0 24 13 42 23 WSW 0,3 0 0,3
09.12.2017 14:00:00 -5,7 -6,6 -0,4 0,3 0,9 4,0 27 15 43 23 SW 0,2 0 0,7
09.12.2017 13:00:00 -5,8 -6,8 -0,4 0,3 0,9 4,0 30 16 53 29 SW 0,4 0 1,3
09.12.2017 12:00:00 -5,9 -6,9 -0,4 0,3 0,9 4,0 32 17 56 30 WSW 0,9 0 0,3
09.12.2017 11:00:00 -5,8 -6,8 -0,4 0,3 0,9 4,0 35 19 59 32 WSW 7 0 0,0
09.12.2017 10:00:00 -5,7 -6,7 -0,4 0,3 0,9 4,0 30 16 56 30 WSW 9 0 0,0
09.12.2017 09:00:00 -5,3 -6,3 -0,4 0,3 0,9 4,0 26 14 44 24 WSW 4,5 0 0,1
09.12.2017 08:00:00 -5,2 -6,1 -0,3 0,3 0,9 4,0 25 13 51 27 WSW 6 0 0,2
09.12.2017 07:00:00 -5,1 -6,0 -0,3 0,3 0,9 4,0 26 14 56 31 WSW 0,5 0 0,1
09.12.2017 06:00:00 -4,9 -5,8 -0,3 0,3 0,9 4,0 26 14 42 23 W 1,4 0 0,1
09.12.2017 05:00:00 -4,9 -5,7 -0,3 0,3 0,9 4,0 23 12 36 19 W 0,3 0 1,2
09.12.2017 04:00:00 -5,2 -6,0 -0,3 0,3 0,9 4,0 18 10 41 22 WSW 0,4 0 1,6
09.12.2017 03:00:00 -5,4 -6,3 -0,3 0,3 0,9 4,0 25 13 41 22 WSW 0,2 0 0,7
09.12.2017 02:00:00 -5,7 -6,7 -0,2 0,3 1,0 4,0 27 15 41 22 SW 0,6 0 0,0
09.12.2017 01:00:00 -5,7 -6,7 -0,2 0,3 1,0 4,0 27 15 48 26 WSW 16 0 0,0
09.12.2017 00:00:00 -5,3 -6,3 -0,2 0,3 1,0 4,0 26 14 49 26 WSW 18 0 0,0
08.12.2017 23:00:00 -4,4 -5,3 -0,2 0,3 1,0 4,0 26 14 48 26 WSW 10 0 0,0
08.12.2017 22:00:00 -4,1 -4,8 -0,2 0,3 1,0 4,0 22 12 40 21 WSW 0,2 0 0,0
08.12.2017 21:00:00 -3,9 -4,6 -0,3 0,3 1,0 4,0 20 11 45 25 W 1,1 0 0,0
08.12.2017 20:00:00 -3,7 -4,5 -0,1 0,3 1,0 4,0 26 14 50 27 W 5 0 0,9
08.12.2017 19:00:00 -3,4 -4,1 -0,1 0,3 1,0 4,0 25 14 42 23 WSW 0,2 0 1,3
08.12.2017 18:00:00 -3,5 -4,0 -0,1 0,3 1,0 4,0 19 11 37 20 WSW 0,1 0 1,0
08.12.2017 17:00:00 -3,9 -4,8 -0,1 0,3 1,0 4,0 24 13 41 22 WSW 6 0 0,0
08.12.2017 16:00:00 -3,8 -4,7 0,0 0,3 1,0 4,0 26 14 46 25 WSW 31 0 0,0
08.12.2017 15:00:00 -3,2 -3,9 0,0 0,3 1,0 4,0 24 13 50 27 WSW 26 17 0,0
08.12.2017 14:00:00 -3,0 -3,9 0,0 0,3 1,0 4,0 26 14 50 27 WSW 24 2 0,0
08.12.2017 13:00:00 -2,7 -3,3 0,0 0,3 1,0 4,0 22 12 41 22 WSW 13 0 0,0
08.12.2017 12:00:00 -2,5 -3,1 -0,1 0,3 1,0 4,0 26 14 51 28 WSW 8 0 0,0
08.12.2017 11:00:00 -2,2 -2,7 -0,1 0,3 1,0 4,0 22 12 66 35 W 0,7 0 1,3
08.12.2017 10:00:00 -1,7 -2,2 -0,1 0,3 1,0 4,0 23 13 44 24 WSW 0,2 0 0,5
08.12.2017 09:00:00 -1,3 -1,7 -0,1 0,3 1,0 4,0 22 12 48 26 WSW 0,2 0 0,0
08.12.2017 08:00:00 -0,9 -1,4 -0,1 0,3 1,0 4,0 31 17 52 28 W 1,3 0 0,0
08.12.2017 07:00:00 -0,4 -0,8 -0,1 0,3 1,0 4,0 29 16 58 31 W 0,1 0 0,0
08.12.2017 06:00:00 0,0 -0,3 -0,1 0,3 1,0 4,0 29 16 49 26 W 0,1 0 0,1
08.12.2017 05:00:00 0,0 -0,3 -0,1 0,3 1,0 4,0 31 17 53 29 W 0,2 0 2,0
08.12.2017 04:00:00 0,0 -0,2 -0,2 0,3 1,0 4,0 27 14 44 24 WSW 0,1 0 0,4
08.12.2017 03:00:00 0,0 -0,2 -0,3 0,3 1,0 4,0 27 15 53 29 SW - 0 0,9
08.12.2017 02:00:00 -0,3 -0,6 -0,2 0,3 1,0 4,0 31 17 56 30 SW - 0 1,0
08.12.2017 01:00:00 -0,6 -0,9 -0,3 0,3 1,0 4,0 36 19 69 38 SW - 0 1,6
08.12.2017 00:00:00 -0,7 -1,1 -0,2 0,3 1,0 4,1 42 23 76 41 SW - 0 0,7
07.12.2017 23:00:00 -0,8 -1,3 -0,3 0,3 1,0 4,1 46 25 72 39 SW 1,8 0 0,2
07.12.2017 22:00:00 -1,2 -1,8 -0,3 0,3 1,0 4,1 40 21 69 37 SSW 4,1 0 0,0
07.12.2017 21:00:00 -1,5 -2,1 -0,3 0,3 1,0 4,1 40 22 65 35 SSW 8 0 0,0
07.12.2017 20:00:00 -1,6 -2,3 -0,3 0,3 1,0 4,1 48 26 77 41 SW 8 0 0,0
07.12.2017 19:00:00 -1,7 -2,3 -0,3 0,3 1,0 4,1 46 25 72 39 SW 7 0 0,0
07.12.2017 18:00:00 -2,2 -2,9 -0,2 0,3 1,0 4,1 35 19 60 32 SW 4,6 0 0,0
07.12.2017 17:00:00 -2,3 -3,0 -0,2 0,3 1,0 4,1 39 21 58 31 SW 2,4 9 0,0
07.12.2017 16:00:00 -2,2 -2,9 -0,2 0,3 1,0 4,1 37 20 59 32 SW 5 26 0,0
07.12.2017 15:00:00 -2,4 -3,1 -0,2 0,3 1,0 4,1 36 19 63 34 SW 3,9 18 0,0
07.12.2017 14:00:00 -2,1 -2,8 -0,2 0,3 1,0 4,1 37 20 59 32 SW 4,8 36 0,0
07.12.2017 13:00:00 -3,0 -3,8 -0,2 0,3 1,0 4,1 37 20 61 33 SW 1,8 0 0,0
07.12.2017 12:00:00 -3,3 -4,0 -0,2 0,3 1,0 4,1 33 18 52 28 SW 0,9 0 0,0
07.12.2017 11:00:00 -3,4 -4,1 -0,2 0,3 1,0 4,1 36 19 59 32 SW 0,1 0 0,0
07.12.2017 10:00:00 -3,3 -4,0 -0,2 0,3 1,0 4,1 36 19 62 34 SW 0,1 0 0,0
07.12.2017 09:00:00 -3,1 -3,8 -0,2 0,3 1,0 4,1 39 21 62 33 SW 0,2 0 0,0
07.12.2017 08:00:00 -2,7 -3,4 -0,1 0,3 1,0 4,1 42 23 66 36 SW 0,1 0 0,0
07.12.2017 07:00:00 -2,7 -3,4 -0,1 0,3 1,0 4,1 42 23 67 36 SW 0,1 0 0,0
07.12.2017 06:00:00 -2,5 -3,1 -0,1 0,3 1,0 4,1 41 22 66 35 SW 0,1 0 0,0
07.12.2017 05:00:00 -2,1 -2,7 -0,1 0,3 1,0 4,1 48 26 76 41 SW 0,1 0 0,0
07.12.2017 04:00:00 -1,8 -2,3 -0,1 0,3 1,0 4,1 47 25 71 38 SW 0,1 0 0,0
07.12.2017 03:00:00 -1,4 -1,9 -0,1 0,3 1,0 4,1 45 25 68 37 SW 0,1 0 0,0
07.12.2017 02:00:00 -1,1 -1,6 -0,1 0,3 1,0 4,1 39 21 64 34 SW - 0 0,0
07.12.2017 01:00:00 -0,9 -1,3 -0,1 0,3 1,0 4,1 36 20 56 30 SW - 0 0,0
07.12.2017 00:00:00 -0,8 -1,2 -0,1 0,3 1,0 4,1 36 20 58 31 SW - 0 0,0
06.12.2017 23:00:00 -0,7 -1,0 -0,1 0,3 1,0 4,1 32 18 50 27 SW - 0 0,0
06.12.2017 22:00:00 -0,7 -1,1 -0,1 0,3 1,0 4,1 32 17 51 27 SW - 0 0,0
06.12.2017 21:00:00 -0,6 -1,0 -0,1 0,3 1,0 4,1 34 19 54 29 SW 0,1 0 0,0
06.12.2017 20:00:00 -0,6 -0,9 -0,1 0,3 1,0 4,1 30 16 53 28 WSW 0,1 0 0,0
06.12.2017 19:00:00 -0,6 -0,9 -0,1 0,3 1,0 4,1 31 17 57 31 WSW 0,1 0 0,0
06.12.2017 18:00:00 -0,6 -0,9 -0,1 0,3 1,0 4,1 31 17 52 28 WSW 0,1 0 0,0
06.12.2017 17:00:00 -0,7 -1,1 -0,1 0,3 1,0 4,1 34 19 57 31 SW 0,1 0 0,0
06.12.2017 16:00:00 -0,7 -1,1 -0,1 0,3 1,0 4,1 34 18 54 29 WSW 0,1 0 0,0
06.12.2017 15:00:00 -0,7 -1,1 -0,1 0,3 1,0 4,1 38 20 61 33 SW 0,1 0 0,0
06.12.2017 14:00:00 -0,9 -1,3 -0,1 0,3 1,0 4,1 38 20 64 35 SW 0,1 0 0,0
06.12.2017 13:00:00 -1,0 -1,4 -0,1 0,3 1,0 4,1 40 21 63 34 SW 0,1 0 0,0
06.12.2017 12:00:00 -1,1 -1,5 -0,1 0,3 1,0 4,1 44 24 67 36 SW 0,1 0 0,0
06.12.2017 11:00:00 -1,2 -1,6 -0,1 0,3 1,0 4,1 41 22 74 40 WSW 0,1 0 0,0
06.12.2017 10:00:00 -1,3 -1,8 -0,1 0,3 1,0 4,1 40 21 63 34 SW 0,1 0 0,0
06.12.2017 09:00:00 -1,4 -1,9 -0,1 0,3 1,0 4,2 40 22 65 35 SW 0,1 0 0,0
06.12.2017 08:00:00 -1,4 -1,9 -0,1 0,3 1,0 4,2 37 20 65 35 WSW 0,1 0 0,0
06.12.2017 07:00:00 -1,4 -1,8 0,0 0,3 1,0 4,2 35 19 57 31 WSW 0,1 0 0,0
06.12.2017 06:00:00 -1,4 -1,8 0,0 0,3 1,0 4,2 33 18 64 35 WSW 0,1 0 0,0
06.12.2017 05:00:00 -1,3 -1,8 0,0 0,3 1,0 4,2 30 16 62 34 WSW 0,1 0 0,0

tt = Température de l'air
td = dewpoint
tt 5cm = Température de l'air 5cm
tt -5cm = Température de l'air -5cm
tt -20cm = Température de l'air -20cm
tt -100cm = Température de l'air -100cm
ff = Vitesse du vent
fx = gusts
dd = Direction du vent
vv = visibility
sd = Ensoleillement
rr = Quantités de précipitations

stations d'obs. à proximité